Time;durP1;ratioP1;P1;durP2;ratioP2;P2;SDS_P1;SDS_P2;PMS_P1;PMS_P2;Temp;Humidity;BMP_temperature;BMP_pressure;BME280_temperature;BME280_humidity;BME280_pressure;Samples;Min_cycle;Max_cycle;Signal;HPM_P1;HPM_P2
2022/05/18 00:01:51;;;;;;;14.32;6.05;;;;;;;15.55;nan;94777.72;5029947;28;20037;-85
2022/05/18 00:04:16;;;;;;;5.85;5.07;;;;;;;16.10;nan;94870.69;5056406;28;20060;-83
2022/05/18 00:06:42;;;;;;;8.00;5.13;;;;;;;17.70;nan;95120.25;5025746;28;20041;-84
2022/05/18 00:09:08;;;;;;;10.73;4.97;;;;;;;16.12;nan;94911.28;5029205;28;20036;-85
2022/05/18 00:11:36;;;;;;;8.57;5.35;;;;;;;16.54;nan;94937.25;5024113;28;20118;-85
2022/05/18 00:14:02;;;;;;;12.88;5.40;;;;;;;13.61;nan;94486.59;5035132;28;20045;-85
2022/05/18 00:16:28;;;;;;;8.40;5.07;;;;;;;13.42;nan;94453.00;5026431;28;20044;-85
2022/05/18 00:18:54;;;;;;;8.10;4.95;;;;;;;14.01;nan;94568.09;5027194;28;20041;-84
2022/05/18 00:21:21;;;;;;;5.95;4.78;;;;;;;14.61;nan;94674.97;5019460;28;20042;-85
2022/05/18 00:23:46;;;;;;;11.00;5.25;;;;;;;13.47;nan;94538.09;5038864;28;20045;-84
2022/05/18 00:26:12;;;;;;;6.30;5.15;;;;;;;13.99;nan;94618.25;5038022;28;20045;-83
2022/05/18 00:28:38;;;;;;;9.73;5.82;;;;;;;13.55;nan;94549.88;5038171;28;20152;-84
2022/05/18 00:31:04;;;;;;;9.57;5.15;;;;;;;13.08;nan;94522.81;5039386;28;20075;-84
2022/05/18 00:33:35;;;;;;;7.70;5.63;;;;;;;12.64;nan;94451.81;5038613;28;20515;-85
2022/05/18 00:36:00;;;;;;;8.27;5.18;;;;;;;13.27;nan;94530.66;5030202;28;20438;-84
2022/05/18 00:38:26;;;;;;;7.80;5.35;;;;;;;14.92;nan;94797.69;5037980;28;20111;-84
2022/05/18 00:40:53;;;;;;;8.43;5.70;;;;;;;17.09;nan;95124.09;5037066;28;20037;-84
2022/05/18 00:43:28;;;;;;;7.32;5.93;;;;;;;17.22;nan;95120.47;5034099;28;20045;-85
2022/05/18 00:45:57;;;;;;;6.03;5.30;;;;;;;16.30;nan;95045.88;5030457;28;20045;-84
2022/05/18 00:48:23;;;;;;;8.48;6.10;;;;;;;16.89;nan;95168.38;5024524;28;20098;-83
2022/05/18 00:50:51;;;;;;;13.13;5.60;;;;;;;15.11;nan;94879.44;5031004;28;20597;-85
2022/05/18 00:53:22;;;;;;;7.50;5.68;;;;;;;15.06;nan;94821.59;5026798;28;20044;-85
2022/05/18 00:56:05;;;;;;;;;;;;;;;16.78;nan;95132.25;5039496;28;20037;-84
2022/05/18 00:58:39;;;;;;;10.07;5.90;;;;;;;12.42;nan;94512.97;5038630;28;19916;-85
2022/05/18 01:01:04;;;;;;;9.77;6.20;;;;;;;12.05;nan;94455.59;5026020;28;20052;-85
2022/05/18 01:03:39;;;;;;;13.93;6.30;;;;;;;12.22;nan;94454.94;5038919;28;20041;-84
2022/05/18 01:06:23;;;;;;;8.25;6.25;;;;;;;14.09;nan;94713.19;5037030;28;20041;-84
2022/05/18 01:09:04;;;;;;;12.38;6.43;;;;;;;12.46;nan;94521.91;5038422;28;20045;-85
2022/05/18 01:11:35;;;;;;;11.93;6.57;;;;;;;13.83;nan;94695.16;5056223;28;20566;-84
2022/05/18 01:14:03;;;;;;;7.20;6.50;;;;;;;14.09;nan;94790.53;5028556;28;20484;-85
2022/05/18 01:16:32;;;;;;;11.00;6.50;;;;;;;16.54;nan;95100.56;5036802;28;20044;-84
2022/05/18 01:18:58;;;;;;;10.70;6.55;;;;;;;14.64;nan;94826.50;5034170;28;20110;-84
2022/05/18 01:21:33;;;;;;;12.15;6.13;;;;;;;14.88;nan;94887.50;5034308;28;20394;-85
2022/05/18 01:24:12;;;;;;;8.82;6.55;;;;;;;16.62;nan;95106.28;5058484;28;20051;-85
2022/05/18 01:26:44;;;;;;;10.63;6.93;;;;;;;12.59;nan;94491.81;5063584;28;20096;-84
2022/05/18 01:29:10;;;;;;;6.60;5.50;;;;;;;12.24;nan;94479.34;5058056;28;20044;-84
2022/05/18 01:31:52;;;;;;;10.07;5.72;;;;;;;16.06;nan;95070.38;5030436;28;20463;-85
2022/05/18 01:34:22;;;;;;;11.52;5.75;;;;;;;15.81;nan;95083.31;5036703;28;20044;-84
2022/05/18 01:36:48;;;;;;;7.07;6.35;;;;;;;14.11;nan;94759.00;5042089;28;20396;-85
2022/05/18 01:39:22;;;;;;;14.55;7.00;;;;;;;16.35;nan;95110.75;5044100;28;20033;-86
2022/05/18 01:41:58;;;;;;;7.72;6.90;;;;;;;15.81;nan;95027.19;5035656;28;20052;-85
2022/05/18 01:44:25;;;;;;;8.05;6.32;;;;;;;16.25;nan;95076.22;5033649;28;20124;-86
2022/05/18 01:46:51;;;;;;;13.45;6.68;;;;;;;16.07;nan;95048.66;5029071;28;20044;-86
2022/05/18 01:49:17;;;;;;;14.23;7.05;;;;;;;15.53;nan;94964.34;5035548;28;20086;-86
2022/05/18 01:51:47;;;;;;;12.63;7.07;;;;;;;15.92;nan;95022.34;5032732;28;20075;-87
2022/05/18 01:54:14;;;;;;;14.40;6.70;;;;;;;15.95;nan;95027.06;5040536;28;20546;-86
2022/05/18 01:56:39;;;;;;;11.55;6.78;;;;;;;16.25;nan;95062.09;5040503;28;20048;-87
2022/05/18 01:59:06;;;;;;;12.68;6.50;;;;;;;15.89;nan;95000.75;5045835;28;20466;-86
2022/05/18 02:01:31;;;;;;;9.57;7.13;;;;;;;15.25;nan;94885.47;5042757;28;20110;-87
2022/05/18 02:03:57;;;;;;;7.10;5.90;;;;;;;15.37;nan;94880.31;5048735;28;20470;-87
2022/05/18 02:06:23;;;;;;;12.63;6.60;;;;;;;15.36;nan;94849.34;5031552;28;20052;-87
2022/05/18 02:08:48;;;;;;;10.95;6.63;;;;;;;16.48;nan;94988.56;5042531;28;20131;-87
2022/05/18 02:11:16;;;;;;;8.45;5.55;;;;;;;16.78;nan;95043.88;5059561;28;20641;-87
2022/05/18 02:13:42;;;;;;;12.55;6.93;;;;;;;16.86;nan;95018.22;5058878;28;20646;-87
2022/05/18 02:16:09;;;;;;;13.77;6.18;;;;;;;15.76;nan;94866.13;5067871;28;20047;-87
2022/05/18 02:18:34;;;;;;;10.52;6.13;;;;;;;17.27;nan;95096.19;5043986;28;20604;-87
2022/05/18 02:21:05;;;;;;;11.57;6.30;;;;;;;16.41;nan;94996.28;5047417;28;20040;-87
2022/05/18 02:23:31;;;;;;;15.70;6.38;;;;;;;16.58;nan;94999.75;5038529;28;20044;-87
2022/05/18 02:25:58;;;;;;;13.07;5.97;;;;;;;15.18;nan;94789.72;5057149;28;20510;-87
2022/05/18 02:28:24;;;;;;;6.75;5.10;;;;;;;15.69;nan;94860.44;5069204;28;20047;-87
2022/05/18 02:30:50;;;;;;;7.55;4.88;;;;;;;16.21;nan;94917.44;5042988;28;20503;-87
2022/05/18 02:33:15;;;;;;;7.22;4.72;;;;;;;16.40;nan;94954.59;5052029;28;20036;-86
2022/05/18 02:35:41;;;;;;;9.13;4.63;;;;;;;15.94;nan;94896.34;5052666;28;20051;-87
2022/05/18 02:38:07;;;;;;;6.20;4.57;;;;;;;16.75;nan;95014.28;5056139;28;20157;-87
2022/05/18 02:40:33;;;;;;;7.68;4.30;;;;;;;17.18;nan;95095.41;5029559;28;20515;-87
2022/05/18 02:42:58;;;;;;;10.43;4.28;;;;;;;16.83;nan;95051.00;5066083;28;20037;-87
2022/05/18 02:45:24;;;;;;;6.72;4.40;;;;;;;15.68;nan;94862.34;5029150;28;20051;-87
2022/05/18 02:47:50;;;;;;;11.13;4.63;;;;;;;17.27;nan;95096.19;5032411;28;20040;-87
2022/05/18 02:50:16;;;;;;;7.20;3.47;;;;;;;16.18;nan;94985.72;5064010;28;20040;-87
2022/05/18 02:52:42;;;;;;;5.90;3.33;;;;;;;16.48;nan;95018.00;5052770;28;20186;-86
2022/05/18 02:57:53;;;;;;;9.45;3.50;;;;;;;16.31;nan;94978.66;5064134;28;20145;-86
2022/05/18 03:00:18;;;;;;;10.15;3.45;;;;;;;16.13;nan;94975.19;5030217;28;20037;-86
2022/05/18 03:02:44;;;;;;;6.07;3.20;;;;;;;16.63;nan;95060.41;5018436;28;20045;-86
2022/05/18 03:05:09;;;;;;;7.18;3.65;;;;;;;16.77;nan;95071.78;5039570;28;20487;-87
2022/05/18 03:07:35;;;;;;;4.47;3.50;;;;;;;14.98;nan;94809.00;5024657;28;20364;-87
2022/05/18 03:10:00;;;;;;;6.65;3.65;;;;;;;15.69;nan;94932.63;5049277;28;20417;-87
2022/05/18 03:12:26;;;;;;;4.70;3.22;;;;;;;14.70;nan;94754.28;5028576;28;20064;-86
2022/05/18 03:14:51;;;;;;;10.25;3.45;;;;;;;16.58;nan;95060.56;5034807;28;20047;-84
2022/05/18 03:17:17;;;;;;;4.95;3.22;;;;;;;16.18;nan;95007.13;5035230;28;20049;-86
2022/05/18 03:19:42;;;;;;;4.88;3.90;;;;;;;15.47;nan;94928.13;5011411;28;20056;-87
2022/05/18 03:24:52;;;;;;;12.18;4.28;;;;;;;16.11;nan;95022.06;5043655;28;20563;-87
2022/05/18 03:27:17;;;;;;;8.23;5.00;;;;;;;15.76;nan;94960.47;5024429;28;20136;-87
2022/05/18 03:29:43;;;;;;;7.75;4.22;;;;;;;15.98;nan;94999.69;5032353;28;20041;-86
2022/05/18 03:32:08;;;;;;;13.95;5.18;;;;;;;16.03;nan;94996.06;5044460;28;20423;-86
2022/05/18 03:34:34;;;;;;;6.30;5.15;;;;;;;16.35;nan;95053.75;5040365;28;20036;-87
2022/05/18 03:37:00;;;;;;;10.52;5.07;;;;;;;17.00;nan;95117.97;5039859;28;20489;-86
2022/05/18 03:39:27;;;;;;;11.10;5.68;;;;;;;16.43;nan;95018.19;5040667;28;20311;-86
2022/05/18 03:41:53;;;;;;;10.75;4.88;;;;;;;16.45;nan;95011.41;5043790;28;20052;-85
2022/05/18 03:44:19;;;;;;;7.90;5.30;;;;;;;16.41;nan;94996.28;5021844;28;20574;-85
2022/05/18 03:46:45;;;;;;;12.02;5.38;;;;;;;16.60;nan;95028.91;5040494;28;20047;-86
2022/05/18 03:49:10;;;;;;;7.13;5.50;;;;;;;17.37;nan;95143.34;5046744;28;20037;-86
2022/05/18 03:51:37;;;;;;;9.10;4.88;;;;;;;16.98;nan;95062.03;5037242;28;20041;-84
2022/05/18 03:54:04;;;;;;;13.93;5.97;;;;;;;15.42;nan;94840.88;5045179;28;20040;-84
2022/05/18 03:56:29;;;;;;;8.95;6.38;;;;;;;15.79;nan;94900.25;5035527;28;20114;-85
2022/05/18 03:58:55;;;;;;;13.13;6.45;;;;;;;16.47;nan;95005.75;5038679;28;20152;-85
2022/05/18 04:01:21;;;;;;;19.95;6.40;;;;;;;16.34;nan;94969.22;5035295;28;20150;-84
2022/05/18 04:03:46;;;;;;;9.65;6.10;;;;;;;17.66;nan;95140.00;5019219;28;20420;-84
2022/05/18 04:06:13;;;;;;;13.15;6.72;;;;;;;17.19;nan;95088.94;5035169;28;20868;-84
2022/05/18 04:08:39;;;;;;;16.77;7.03;;;;;;;17.66;nan;95151.53;5035275;28;20040;-83
2022/05/18 04:11:05;;;;;;;11.20;6.38;;;;;;;17.51;nan;95132.44;5030644;28;20049;-84
2022/05/18 04:13:32;;;;;;;10.55;7.07;;;;;;;17.52;nan;95124.06;5034160;28;20060;-85
2022/05/18 04:15:58;;;;;;;9.35;6.32;;;;;;;17.40;nan;95099.78;5032023;28;20044;-85
2022/05/18 04:18:24;;;;;;;9.82;6.43;;;;;;;16.60;nan;95039.63;5032468;28;20049;-84
2022/05/18 04:20:51;;;;;;;11.13;6.60;;;;;;;17.29;nan;95152.16;5032622;28;20499;-85
2022/05/18 04:23:17;;;;;;;17.23;8.75;;;;;;;16.54;nan;95022.13;5014625;28;20606;-85
2022/05/18 04:25:43;;;;;;;12.05;6.68;;;;;;;16.93;nan;95058.72;5033307;28;20048;-84
2022/05/18 04:28:12;;;;;;;12.90;6.53;;;;;;;17.28;nan;95129.16;5012851;28;20084;-84
2022/05/18 04:30:38;;;;;;;10.85;7.45;;;;;;;17.38;nan;95141.44;5019328;28;20049;-85
2022/05/18 04:33:04;;;;;;;14.43;8.45;;;;;;;16.41;nan;94991.72;5019481;28;20075;-84
2022/05/18 04:35:30;;;;;;;11.32;7.07;;;;;;;17.37;nan;95140.66;5027751;28;20085;-84
2022/05/18 04:37:56;;;;;;;13.00;7.50;;;;;;;17.11;nan;95105.03;5037299;28;20049;-84
2022/05/18 04:40:22;;;;;;;19.45;7.50;;;;;;;16.40;nan;95000.09;5022857;28;20044;-86
2022/05/18 04:42:48;;;;;;;9.23;6.38;;;;;;;17.26;nan;95126.78;5017840;28;20118;-84
2022/05/18 04:45:17;;;;;;;14.20;6.72;;;;;;;17.33;nan;95139.69;5032477;28;20053;-84
2022/05/18 04:47:42;;;;;;;9.82;7.70;;;;;;;17.21;nan;95131.50;5029354;28;20215;-85
2022/05/18 04:50:09;;;;;;;14.90;8.38;;;;;;;15.34;nan;94881.72;5009883;28;20037;-84
2022/05/18 04:52:35;;;;;;;9.65;7.78;;;;;;;14.52;nan;94764.88;5032571;28;20055;-89
2022/05/18 04:55:00;;;;;;;13.20;8.27;;;;;;;16.02;nan;94983.81;5020527;28;20045;-87
2022/05/18 04:57:26;;;;;;;11.73;8.48;;;;;;;16.47;nan;95036.00;5017437;28;20052;-86
2022/05/18 04:59:52;;;;;;;11.15;8.40;;;;;;;16.24;nan;95026.50;5038184;28;20266;-86
2022/05/18 05:02:18;;;;;;;12.40;9.00;;;;;;;17.12;nan;95152.16;5037013;28;20053;-85
2022/05/18 05:04:44;;;;;;;14.18;8.90;;;;;;;16.96;nan;95143.78;5023841;28;20044;-86
2022/05/18 05:07:10;;;;;;;13.90;9.73;;;;;;;16.38;nan;95047.78;5013153;28;20554;-84
2022/05/18 05:09:37;;;;;;;13.40;10.00;;;;;;;15.40;nan;94896.53;5023135;28;20127;-83
2022/05/18 05:12:03;;;;;;;13.23;9.50;;;;;;;17.17;nan;95163.50;5048453;28;20049;-84
2022/05/18 05:14:28;;;;;;;11.98;9.55;;;;;;;16.46;nan;95049.69;5056250;28;20376;-85
2022/05/18 05:16:54;;;;;;;19.58;10.75;;;;;;;16.75;nan;95078.56;5014307;28;20075;-85
2022/05/18 05:19:19;;;;;;;14.98;10.45;;;;;;;16.68;nan;95116.50;5018159;28;20059;-84
2022/05/18 05:21:45;;;;;;;13.50;10.65;;;;;;;16.55;nan;95128.13;5020675;28;20049;-85
2022/05/18 05:24:12;;;;;;;12.45;10.13;;;;;;;16.71;nan;95165.97;5025948;28;20044;-86
2022/05/18 05:26:39;;;;;;;15.43;11.57;;;;;;;16.14;nan;95115.09;5043333;28;20091;-85
2022/05/18 05:29:04;;;;;;;19.25;11.77;;;;;;;15.75;nan;95023.06;5020544;28;20056;-85
2022/05/18 05:31:30;;;;;;;18.38;12.70;;;;;;;16.41;nan;95122.88;5019299;28;20110;-85
2022/05/18 05:33:57;;;;;;;15.73;12.48;;;;;;;16.02;nan;95086.22;5035383;28;20045;-84
2022/05/18 05:36:23;;;;;;;17.67;11.45;;;;;;;15.49;nan;95019.47;5017975;28;20040;-83
2022/05/18 05:38:49;;;;;;;14.85;11.30;;;;;;;15.95;nan;95101.94;5034977;28;20041;-84
2022/05/18 05:41:15;;;;;;;16.50;12.25;;;;;;;16.00;nan;95101.03;5039159;28;20103;-84
2022/05/18 05:43:41;;;;;;;17.00;12.75;;;;;;;16.26;nan;95141.25;5038093;28;20044;-85
2022/05/18 05:46:10;;;;;;;20.13;12.60;;;;;;;16.11;nan;95132.53;5036701;28;20051;-84
2022/05/18 05:48:36;;;;;;;15.95;12.07;;;;;;;15.82;nan;95086.78;5018596;28;20063;-84
2022/05/18 05:51:04;;;;;;;15.52;11.63;;;;;;;16.52;nan;95199.13;5031576;28;20037;-85
2022/05/18 05:53:32;;;;;;;21.77;13.02;;;;;;;16.43;nan;95197.50;5031567;28;20045;-85
2022/05/18 05:55:59;;;;;;;16.55;10.43;;;;;;;16.08;nan;95183.22;5038004;28;20442;-86
2022/05/18 05:58:26;;;;;;;15.15;10.93;;;;;;;16.11;nan;95214.69;5014323;28;20860;-85
2022/05/18 06:00:52;;;;;;;15.50;11.70;;;;;;;16.12;nan;95210.91;5032980;28;20502;-84
2022/05/18 06:03:19;;;;;;;20.00;12.43;;;;;;;15.27;nan;95087.09;5024304;28;20041;-85
2022/05/18 06:05:44;;;;;;;16.20;12.18;;;;;;;15.13;nan;95077.56;5027538;28;20100;-84
2022/05/18 06:08:10;;;;;;;15.88;12.40;;;;;;;15.29;nan;95081.44;5036889;28;20160;-84
2022/05/18 06:10:36;;;;;;;16.95;13.23;;;;;;;16.00;nan;95224.06;5047627;28;20416;-84
2022/05/18 06:13:06;;;;;;;19.25;13.30;;;;;;;14.63;nan;95024.28;5016339;28;20056;-85
2022/05/18 06:15:32;;;;;;;19.52;13.32;;;;;;;15.31;nan;95138.84;5016642;28;20049;-85
2022/05/18 06:17:57;;;;;;;25.13;14.73;;;;;;;14.97;nan;95085.16;5034741;28;20044;-85
2022/05/18 06:20:23;;;;;;;17.48;11.80;;;;;;;15.79;nan;95221.88;5015131;28;20554;-84
2022/05/18 06:22:48;;;;;;;23.05;14.18;;;;;;;15.44;nan;95180.75;5029849;28;20467;-84
2022/05/18 06:25:15;;;;;;;20.95;12.80;;;;;;;14.75;nan;95072.56;5043985;28;20467;-85
2022/05/18 06:27:41;;;;;;;18.17;12.48;;;;;;;14.97;nan;95114.53;5023047;28;20037;-84
2022/05/18 06:30:09;;;;;;;20.17;13.52;;;;;;;14.68;nan;95078.34;5015100;28;20645;-85
2022/05/18 06:32:34;;;;;;;18.83;12.02;;;;;;;15.13;nan;95181.75;5036148;28;20511;-85
2022/05/18 06:34:59;;;;;;;21.15;13.70;;;;;;;14.98;nan;95124.13;5019084;28;20052;-84
2022/05/18 06:37:25;;;;;;;19.15;13.23;;;;;;;15.61;nan;95206.03;5025788;28;20088;-84
2022/05/18 06:39:50;;;;;;;21.00;12.57;;;;;;;15.97;nan;95240.72;5015796;28;20061;-86
2022/05/18 06:42:16;;;;;;;18.20;11.82;;;;;;;13.83;nan;94920.94;5037093;28;20475;-84
2022/05/18 06:44:42;;;;;;;18.45;12.88;;;;;;;15.92;nan;95230.16;5037533;28;20039;-84
2022/05/18 06:47:07;;;;;;;21.10;11.68;;;;;;;14.89;nan;95075.19;5030200;28;20124;-85
2022/05/18 06:49:33;;;;;;;15.98;11.13;;;;;;;15.82;nan;95223.97;5031032;28;20044;-85
2022/05/18 06:51:59;;;;;;;23.73;11.95;;;;;;;15.35;nan;95171.06;5012375;28;20347;-84
2022/05/18 06:54:24;;;;;;;24.15;13.13;;;;;;;15.59;nan;95202.88;5028958;28;20037;-86
2022/05/18 06:56:50;;;;;;;19.05;11.77;;;;;;;15.40;nan;95163.75;5048615;28;20052;-85
2022/05/18 06:59:16;;;;;;;16.58;11.40;;;;;;;15.47;nan;95162.53;5024190;28;20079;-85
2022/05/18 07:01:42;;;;;;;17.20;10.05;;;;;;;16.09;nan;95257.03;5009301;28;20559;-85
2022/05/18 07:04:11;;;;;;;19.85;12.52;;;;;;;15.52;nan;95152.50;5018195;28;20317;-84
2022/05/18 07:06:40;;;;;;;17.33;12.38;;;;;;;15.63;nan;95177.13;5028723;28;20472;-84
2022/05/18 07:09:08;;;;;;;17.67;12.55;;;;;;;14.84;nan;95014.69;5026779;28;20354;-85
2022/05/18 07:11:37;;;;;;;20.85;15.45;;;;;;;14.48;nan;94939.25;5056863;28;20044;-85
2022/05/18 07:14:06;;;;;;;23.45;11.75;;;;;;;16.39;nan;95242.84;5038698;28;20459;-85
2022/05/18 07:16:33;;;;;;;23.60;14.20;;;;;;;16.91;nan;95256.47;5048845;28;20599;-87
2022/05/18 07:18:59;;;;;;;21.90;12.75;;;;;;;16.99;nan;95255.69;5045906;28;20048;-86
2022/05/18 07:21:26;;;;;;;14.80;11.18;;;;;;;16.71;nan;95260.47;5036845;28;20441;-86
2022/05/18 07:23:53;;;;;;;19.38;12.45;;;;;;;16.96;nan;95258.97;5028129;28;20063;-86
2022/05/18 07:26:20;;;;;;;17.08;12.05;;;;;;;16.27;nan;95132.13;5036100;28;20118;-85
2022/05/18 07:28:46;;;;;;;18.25;12.27;;;;;;;16.14;nan;95094.47;5031351;28;20755;-85
2022/05/18 07:31:12;;;;;;;16.42;11.50;;;;;;;17.09;nan;95274.13;5053119;28;20506;-84
2022/05/18 07:33:37;;;;;;;19.00;11.70;;;;;;;16.88;nan;95225.72;5058822;28;20052;-86
2022/05/18 07:36:05;;;;;;;15.05;12.55;;;;;;;16.32;nan;95118.63;5030728;28;20116;-86
2022/05/18 07:38:33;;;;;;;12.77;10.68;;;;;;;16.18;nan;95130.19;5020639;28;20045;-85
2022/05/18 07:40:59;;;;;;;15.65;12.05;;;;;;;17.28;nan;95266.63;5028954;28;20394;-86
2022/05/18 07:43:25;;;;;;;17.83;10.90;;;;;;;16.64;nan;95139.66;5036419;28;20048;-86
2022/05/18 07:45:53;;;;;;;14.15;10.80;;;;;;;17.35;nan;95282.25;5035729;28;20048;-86
2022/05/18 07:48:19;;;;;;;15.18;10.85;;;;;;;16.70;nan;95188.50;5028829;28;20223;-86
2022/05/18 07:50:45;;;;;;;14.73;10.40;;;;;;;16.65;nan;95216.19;5027378;28;20048;-85
2022/05/18 07:53:11;;;;;;;19.80;11.75;;;;;;;16.40;nan;95147.28;5023442;28;20360;-86
2022/05/18 07:55:37;;;;;;;18.92;11.73;;;;;;;17.16;nan;95239.66;5038803;28;20055;-86
2022/05/18 07:58:04;;;;;;;18.77;11.45;;;;;;;16.75;nan;95201.75;5035202;28;20044;-87
2022/05/18 08:00:30;;;;;;;17.35;10.68;;;;;;;15.54;nan;95011.34;5027229;28;20037;-86
2022/05/18 08:02:55;;;;;;;21.27;10.90;;;;;;;16.70;nan;95204.56;5058893;28;20048;-86
2022/05/18 08:05:21;;;;;;;17.00;12.02;;;;;;;16.10;nan;95111.44;5033219;28;20045;-85
2022/05/18 08:07:47;;;;;;;14.93;12.57;;;;;;;16.55;nan;95174.41;5042308;28;20044;-85
2022/05/18 08:15:43;;;;;;;17.38;12.38;;;;;;;16.97;nan;95282.00;5048541;28;20514;-83
2022/05/18 08:18:10;;;;;;;15.00;12.23;;;;;;;16.14;nan;95150.66;5041157;28;20076;-86
2022/05/18 08:20:39;;;;;;;22.77;12.38;;;;;;;15.62;nan;95069.41;5038196;28;20036;-87
2022/05/18 08:23:04;;;;;;;22.77;13.52;;;;;;;15.33;nan;94989.69;5008047;28;20168;-86
2022/05/18 08:25:30;;;;;;;16.73;12.75;;;;;;;17.24;nan;95279.06;5033957;28;20049;-86
2022/05/18 08:27:55;;;;;;;25.92;12.77;;;;;;;16.87;nan;95234.84;5047801;28;20049;-87
2022/05/18 08:30:22;;;;;;;20.02;12.60;;;;;;;15.75;nan;95030.31;5054626;28;20577;-83
2022/05/18 08:32:48;;;;;;;17.75;12.02;;;;;;;16.87;nan;95212.63;5038139;28;20036;-86
2022/05/18 08:35:14;;;;;;;18.90;12.60;;;;;;;17.06;nan;95233.81;5057901;28;20356;-85
2022/05/18 08:37:46;;;;;;;32.63;11.57;;;;;;;16.90;nan;95186.03;5055265;28;20070;-86
2022/05/18 08:40:30;;;;;;;23.65;12.23;;;;;;;17.31;nan;95228.47;5055700;28;20037;-86
2022/05/18 08:42:58;;;;;;;14.73;10.85;;;;;;;16.76;nan;95168.50;5037726;28;20250;-86
2022/05/18 08:45:29;;;;;;;14.13;9.98;;;;;;;16.64;nan;95173.66;5039558;28;20125;-86
2022/05/18 08:48:19;;;;;;;17.05;9.55;;;;;;;17.08;nan;95267.22;5056864;28;20048;-85
2022/05/18 08:50:45;;;;;;;16.57;10.37;;;;;;;17.01;nan;95224.03;5041321;28;20857;-85
2022/05/18 08:53:41;;;;;;;18.30;11.20;;;;;;;17.83;nan;95289.41;5037020;28;20740;-87
2022/05/18 08:56:38;;;;;;;15.63;10.50;;;;;;;17.90;nan;95289.72;5032308;28;20088;-86
2022/05/18 08:59:09;;;;;;;16.25;10.93;;;;;;;16.99;nan;95086.91;5042026;28;20057;-86
2022/05/18 09:01:46;;;;;;;;;;;;;;;18.12;nan;95282.28;5033260;28;20056;-85
2022/05/18 09:04:30;;;;;;;11.77;9.32;;;;;;;18.10;nan;95294.44;5036937;28;19924;-86
2022/05/18 09:06:59;;;;;;;17.85;10.40;;;;;;;18.19;nan;95271.06;5037234;28;20072;-86
2022/05/18 09:12:26;;;;;;;17.17;10.50;;;;;;;18.44;nan;95231.84;5052212;28;20063;-86
2022/05/18 09:14:52;;;;;;;15.45;8.32;;;;;;;18.87;nan;95269.28;5052378;28;20048;-85
2022/05/18 09:17:33;;;;;;;12.55;8.20;;;;;;;18.79;nan;95270.91;5058878;28;20082;-84
2022/05/18 09:20:19;;;;;;;13.68;8.68;;;;;;;18.84;nan;95264.56;5035979;28;20044;-85
2022/05/18 09:23:02;;;;;;;17.52;8.65;;;;;;;18.84;nan;95232.31;5023738;28;20520;-86
2022/05/18 09:25:49;;;;;;;9.90;7.00;;;;;;;19.00;nan;95270.94;5036810;28;20037;-86
2022/05/18 09:28:49;;;;;;;9.68;7.53;;;;;;;18.36;nan;95179.75;5053500;28;20041;-86
2022/05/18 09:31:36;;;;;;;8.45;6.63;;;;;;;18.91;nan;95258.69;5048147;28;20048;-85
2022/05/18 09:34:36;;;;;;;12.38;7.28;;;;;;;19.05;nan;95254.66;5046973;28;20471;-85
2022/05/18 09:37:36;;;;;;;9.63;6.05;;;;;;;18.81;nan;95228.38;5042621;28;20040;-86
2022/05/18 09:40:12;;;;;;;9.65;6.60;;;;;;;18.92;nan;95244.16;5049296;28;20041;-86
2022/05/18 09:42:45;;;;;;;10.90;6.13;;;;;;;18.95;nan;95265.75;5057835;28;20067;-86
2022/05/18 09:45:24;;;;;;;15.43;6.50;;;;;;;18.95;nan;95230.84;5039907;28;20559;-86
2022/05/18 09:47:58;;;;;;;25.52;9.13;;;;;;;18.88;nan;95215.22;5016238;28;20718;-85
2022/05/18 09:50:24;;;;;;;14.15;7.57;;;;;;;16.85;nan;94952.38;5036311;28;20125;-84
2022/05/18 09:52:51;;;;;;;22.38;12.18;;;;;;;18.43;nan;95241.78;5052100;28;20894;-81
2022/05/18 09:55:20;;;;;;;21.88;12.40;;;;;;;17.41;nan;95125.50;5059007;28;20028;-84
2022/05/18 09:57:55;;;;;;;23.60;11.63;;;;;;;18.01;nan;95258.75;5035424;28;20041;-83
2022/05/18 10:00:24;;;;;;;28.67;10.52;;;;;;;17.17;nan;95184.16;5028103;28;20041;-83
2022/05/18 10:08:31;;;;;;;18.45;9.98;;;;;;;16.39;nan;95189.31;5053380;28;20051;-84
2022/05/18 10:11:01;;;;;;;18.52;9.85;;;;;;;16.56;nan;95291.09;5034263;28;20069;-86
2022/05/18 10:13:31;;;;;;;22.08;11.85;;;;;;;15.98;nan;95210.22;5032177;28;20523;-86
2022/05/18 10:16:36;;;;;;;13.85;10.48;;;;;;;15.84;nan;95199.59;5037607;28;20164;-85
2022/05/18 10:19:03;;;;;;;23.15;11.38;;;;;;;16.24;nan;95264.66;4994188;28;20047;-87
2022/05/18 10:21:48;;;;;;;31.30;14.57;;;;;;;16.09;nan;95270.41;5034181;28;20519;-83
2022/05/18 10:24:40;;;;;;;40.10;13.43;;;;;;;16.10;nan;95326.25;5032204;28;20452;-82
2022/05/18 10:27:18;;;;;;;16.80;9.18;;;;;;;15.73;nan;95327.38;5020279;28;20091;-84
2022/05/18 10:30:05;;;;;;;23.88;12.07;;;;;;;14.82;nan;95174.38;5031968;28;20369;-85
2022/05/18 10:32:31;;;;;;;38.88;12.63;;;;;;;15.48;nan;95265.66;5026413;28;20051;-85
2022/05/18 10:34:59;;;;;;;18.08;10.88;;;;;;;14.72;nan;95147.94;5029638;28;20048;-85
2022/05/18 10:37:30;;;;;;;23.17;11.65;;;;;;;15.49;nan;95267.22;5047622;28;20503;-86
2022/05/18 10:40:17;;;;;;;16.75;10.93;;;;;;;15.76;nan;95316.09;5030078;28;20049;-86
2022/05/18 10:42:50;;;;;;;30.58;13.27;;;;;;;16.29;nan;95350.16;5035015;28;20052;-86
2022/05/18 10:45:32;;;;;;;21.00;10.05;;;;;;;15.26;nan;95194.25;5025074;28;20135;-87
2022/05/18 10:48:13;;;;;;;20.25;11.30;;;;;;;16.16;nan;95329.63;5030098;28;20131;-86
2022/05/18 10:50:40;;;;;;;19.77;11.23;;;;;;;14.79;nan;95113.59;5026434;28;20047;-87
2022/05/18 10:53:34;;;;;;;19.75;9.90;;;;;;;12.63;nan;94789.94;5030403;28;20513;-86
2022/05/18 10:56:07;;;;;;;17.75;8.13;;;;;;;11.98;nan;94670.44;5034583;28;20205;-86
2022/05/18 10:58:51;;;;;;;14.00;6.50;;;;;;;16.15;nan;95336.84;5035508;28;20037;-87
2022/05/18 11:01:37;;;;;;;11.13;5.70;;;;;;;13.74;nan;95019.47;5036908;28;20076;-87
2022/05/18 11:04:17;;;;;;;12.57;5.20;;;;;;;16.35;nan;95375.69;5037096;28;20513;-88
2022/05/18 11:06:45;;;;;;;7.90;3.70;;;;;;;11.71;nan;94657.09;5038041;28;20310;-87
2022/05/18 11:09:28;;;;;;;6.68;3.50;;;;;;;16.54;nan;95381.66;5024939;28;20055;-86
2022/05/18 11:12:26;;;;;;;17.73;5.15;;;;;;;15.73;nan;95231.13;5055687;28;20060;-85
2022/05/18 11:15:08;;;;;;;13.30;5.60;;;;;;;13.32;nan;94833.31;5023845;28;20063;-85
2022/05/18 11:17:52;;;;;;;11.60;4.75;;;;;;;16.99;nan;95405.72;5034954;28;20044;-85
2022/05/18 11:20:51;;;;;;;8.15;3.55;;;;;;;17.10;nan;95406.22;5046578;28;20041;-85
2022/05/18 11:23:29;;;;;;;11.40;3.90;;;;;;;16.87;nan;95371.47;5012092;28;20135;-85
2022/05/18 11:26:19;;;;;;;6.88;2.70;;;;;;;17.28;nan;95411.38;5034327;28;20052;-85
2022/05/18 11:28:51;;;;;;;8.40;4.45;;;;;;;17.34;nan;95387.88;5045593;28;20506;-85
2022/05/18 11:31:20;;;;;;;4.85;2.63;;;;;;;17.36;nan;95417.84;5042637;28;20698;-85
2022/05/18 11:34:04;;;;;;;6.82;3.33;;;;;;;17.34;nan;95425.41;5045540;28;20074;-86
2022/05/18 11:36:54;;;;;;;6.00;3.08;;;;;;;17.41;nan;95425.75;5033119;28;20493;-85
2022/05/18 11:39:19;;;;;;;8.05;2.60;;;;;;;17.58;nan;95430.38;5033664;28;20064;-85
2022/05/18 11:41:48;;;;;;;3.03;2.17;;;;;;;17.63;nan;95430.25;5044488;28;20121;-86
2022/05/18 11:44:34;;;;;;;5.00;2.58;;;;;;;17.84;nan;95431.28;5049784;28;20763;-86
2022/05/18 11:47:18;;;;;;;11.80;3.13;;;;;;;17.84;nan;95443.91;5027205;28;20048;-85
2022/05/18 11:50:03;;;;;;;7.20;1.80;;;;;;;17.45;nan;95440.13;5040909;28;20247;-86
2022/05/18 11:52:57;;;;;;;6.90;1.45;;;;;;;17.29;nan;95422.88;5035693;28;20036;-86
2022/05/18 11:55:38;;;;;;;9.65;1.75;;;;;;;17.44;nan;95429.72;5048793;28;20665;-86
2022/05/18 11:58:52;;;;;;;5.45;1.60;;;;;;;16.93;nan;95348.03;5026222;28;20470;-86
2022/05/18 12:01:35;;;;;;;8.60;2.00;;;;;;;16.78;nan;95321.66;5032858;28;20115;-86
2022/05/18 12:04:30;;;;;;;9.30;2.53;;;;;;;17.57;nan;95459.09;5056619;28;20063;-86
2022/05/18 12:07:06;;;;;;;11.02;2.88;;;;;;;17.63;nan;95462.44;5036627;28;20051;-86
2022/05/18 12:09:34;;;;;;;17.55;3.10;;;;;;;17.76;nan;95458.88;5041013;28;20042;-87
2022/05/18 12:12:10;;;;;;;4.88;2.50;;;;;;;15.75;nan;95155.97;5051465;28;20524;-86
2022/05/18 12:14:38;;;;;;;7.72;2.72;;;;;;;17.57;nan;95466.34;5025767;28;20059;-85
2022/05/18 12:17:22;;;;;;;21.73;4.03;;;;;;;15.94;nan;95214.59;5034371;28;20822;-86